UOOO 220730Z 01009MPS CAVOK 10/04 Q1014 R01/CLRD60 NOSIG RMK QFE746/0995
QNH:(hPa/inHg/mmHg)1014 / 29.94 / 761
QFE:(hPa/inHg/mmHg)993 / 29.32 / 745
Temperature10
Dew Point4
Visibility> 10000
WeatherCAVOK
Cloud Cover
Transition Height1200 m./4600 ft.
Transition LevelFL60
SQUAWK